sensor_id;sensor_type;location;lat;lon;timestamp;P1;durP1;ratioP1;P2;durP2;ratioP2
21152;SDS011;10734;44.792;20.482;2022-07-10T00:00:02;6.40;;;1.90;;
21152;SDS011;10734;44.792;20.482;2022-07-10T00:02:30;5.60;;;1.85;;
21152;SDS011;10734;44.792;20.482;2022-07-10T00:04:57;4.63;;;2.10;;
21152;SDS011;10734;44.792;20.482;2022-07-10T00:07:23;5.22;;;2.35;;
21152;SDS011;10734;44.792;20.482;2022-07-10T00:09:50;10.00;;;2.38;;
21152;SDS011;10734;44.792;20.482;2022-07-10T00:12:17;7.53;;;2.22;;
21152;SDS011;10734;44.792;20.482;2022-07-10T00:14:43;3.85;;;1.67;;
21152;SDS011;10734;44.792;20.482;2022-07-10T00:17:10;7.30;;;1.83;;
21152;SDS011;10734;44.792;20.482;2022-07-10T00:19:37;5.85;;;2.13;;
21152;SDS011;10734;44.792;20.482;2022-07-10T00:22:03;11.00;;;2.38;;
21152;SDS011;10734;44.792;20.482;2022-07-10T00:24:30;7.15;;;2.03;;
21152;SDS011;10734;44.792;20.482;2022-07-10T00:26:58;7.28;;;1.85;;
21152;SDS011;10734;44.792;20.482;2022-07-10T00:29:25;6.55;;;2.03;;
21152;SDS011;10734;44.792;20.482;2022-07-10T00:31:51;5.72;;;2.15;;
21152;SDS011;10734;44.792;20.482;2022-07-10T00:34:18;5.60;;;1.95;;
21152;SDS011;10734;44.792;20.482;2022-07-10T00:36:45;3.28;;;1.70;;
21152;SDS011;10734;44.792;20.482;2022-07-10T00:39:11;9.88;;;2.22;;
21152;SDS011;10734;44.792;20.482;2022-07-10T00:41:38;4.93;;;1.70;;
21152;SDS011;10734;44.792;20.482;2022-07-10T00:44:04;4.20;;;1.95;;
21152;SDS011;10734;44.792;20.482;2022-07-10T00:46:31;6.43;;;2.17;;
21152;SDS011;10734;44.792;20.482;2022-07-10T00:48:58;4.00;;;1.70;;
21152;SDS011;10734;44.792;20.482;2022-07-10T00:51:26;5.90;;;1.95;;
21152;SDS011;10734;44.792;20.482;2022-07-10T00:53:55;5.47;;;2.30;;
21152;SDS011;10734;44.792;20.482;2022-07-10T00:56:24;7.22;;;2.42;;
21152;SDS011;10734;44.792;20.482;2022-07-10T00:58:53;8.20;;;2.40;;
21152;SDS011;10734;44.792;20.482;2022-07-10T01:01:20;6.45;;;2.08;;
21152;SDS011;10734;44.792;20.482;2022-07-10T01:03:49;2.88;;;1.60;;
21152;SDS011;10734;44.792;20.482;2022-07-10T01:06:16;4.70;;;1.67;;
21152;SDS011;10734;44.792;20.482;2022-07-10T01:08:43;6.22;;;1.67;;
21152;SDS011;10734;44.792;20.482;2022-07-10T01:11:12;8.02;;;2.05;;
21152;SDS011;10734;44.792;20.482;2022-07-10T01:13:41;6.10;;;1.63;;
21152;SDS011;10734;44.792;20.482;2022-07-10T01:16:10;11.23;;;2.47;;
21152;SDS011;10734;44.792;20.482;2022-07-10T01:18:37;8.90;;;2.00;;
21152;SDS011;10734;44.792;20.482;2022-07-10T01:21:05;10.70;;;1.85;;
21152;SDS011;10734;44.792;20.482;2022-07-10T01:23:32;7.28;;;2.00;;
21152;SDS011;10734;44.792;20.482;2022-07-10T01:25:58;2.72;;;1.90;;
21152;SDS011;10734;44.792;20.482;2022-07-10T01:28:27;3.58;;;2.00;;
21152;SDS011;10734;44.792;20.482;2022-07-10T01:30:55;5.60;;;1.60;;
21152;SDS011;10734;44.792;20.482;2022-07-10T01:33:22;5.65;;;2.15;;
21152;SDS011;10734;44.792;20.482;2022-07-10T01:35:49;3.60;;;1.80;;
21152;SDS011;10734;44.792;20.482;2022-07-10T01:38:15;3.38;;;2.28;;
21152;SDS011;10734;44.792;20.482;2022-07-10T01:40:42;3.08;;;1.70;;
21152;SDS011;10734;44.792;20.482;2022-07-10T01:43:09;7.47;;;1.73;;
21152;SDS011;10734;44.792;20.482;2022-07-10T01:45:35;9.95;;;2.00;;
21152;SDS011;10734;44.792;20.482;2022-07-10T01:48:02;7.28;;;1.77;;
21152;SDS011;10734;44.792;20.482;2022-07-10T01:50:29;4.97;;;1.58;;
21152;SDS011;10734;44.792;20.482;2022-07-10T01:52:55;6.07;;;1.80;;
21152;SDS011;10734;44.792;20.482;2022-07-10T01:55:22;3.83;;;1.60;;
21152;SDS011;10734;44.792;20.482;2022-07-10T01:57:49;4.20;;;1.70;;
21152;SDS011;10734;44.792;20.482;2022-07-10T02:00:15;4.72;;;2.20;;
21152;SDS011;10734;44.792;20.482;2022-07-10T02:02:42;5.65;;;2.08;;
21152;SDS011;10734;44.792;20.482;2022-07-10T02:05:29;5.47;;;2.03;;
21152;SDS011;10734;44.792;20.482;2022-07-10T02:07:55;3.80;;;1.73;;
21152;SDS011;10734;44.792;20.482;2022-07-10T02:10:22;3.13;;;1.70;;
21152;SDS011;10734;44.792;20.482;2022-07-10T02:12:49;7.78;;;1.65;;
21152;SDS011;10734;44.792;20.482;2022-07-10T02:15:15;10.02;;;1.90;;
21152;SDS011;10734;44.792;20.482;2022-07-10T02:17:42;4.22;;;1.77;;
21152;SDS011;10734;44.792;20.482;2022-07-10T02:20:09;5.25;;;2.20;;
21152;SDS011;10734;44.792;20.482;2022-07-10T02:22:37;8.20;;;2.10;;
21152;SDS011;10734;44.792;20.482;2022-07-10T02:25:03;3.67;;;1.55;;
21152;SDS011;10734;44.792;20.482;2022-07-10T02:27:31;3.58;;;1.75;;
21152;SDS011;10734;44.792;20.482;2022-07-10T02:29:57;11.48;;;2.10;;
21152;SDS011;10734;44.792;20.482;2022-07-10T02:32:24;4.22;;;1.77;;
21152;SDS011;10734;44.792;20.482;2022-07-10T02:34:51;5.38;;;1.85;;
21152;SDS011;10734;44.792;20.482;2022-07-10T02:37:18;6.70;;;2.15;;
21152;SDS011;10734;44.792;20.482;2022-07-10T02:39:44;4.53;;;1.83;;
21152;SDS011;10734;44.792;20.482;2022-07-10T02:42:11;3.22;;;2.08;;
21152;SDS011;10734;44.792;20.482;2022-07-10T02:44:38;5.10;;;1.80;;
21152;SDS011;10734;44.792;20.482;2022-07-10T02:47:04;5.47;;;1.70;;
21152;SDS011;10734;44.792;20.482;2022-07-10T02:49:31;2.17;;;1.70;;
21152;SDS011;10734;44.792;20.482;2022-07-10T02:51:59;5.72;;;1.85;;
21152;SDS011;10734;44.792;20.482;2022-07-10T02:54:26;2.60;;;2.00;;
21152;SDS011;10734;44.792;20.482;2022-07-10T02:56:52;3.92;;;1.42;;
21152;SDS011;10734;44.792;20.482;2022-07-10T02:59:19;6.55;;;2.13;;
21152;SDS011;10734;44.792;20.482;2022-07-10T03:01:46;5.60;;;2.17;;
21152;SDS011;10734;44.792;20.482;2022-07-10T03:04:12;7.93;;;2.00;;
21152;SDS011;10734;44.792;20.482;2022-07-10T03:06:39;8.43;;;1.90;;
21152;SDS011;10734;44.792;20.482;2022-07-10T03:09:06;3.60;;;2.05;;
21152;SDS011;10734;44.792;20.482;2022-07-10T03:11:32;3.60;;;1.85;;
21152;SDS011;10734;44.792;20.482;2022-07-10T03:13:59;7.95;;;2.10;;
21152;SDS011;10734;44.792;20.482;2022-07-10T03:16:25;4.63;;;1.73;;
21152;SDS011;10734;44.792;20.482;2022-07-10T03:18:52;7.30;;;1.60;;
21152;SDS011;10734;44.792;20.482;2022-07-10T03:21:19;6.63;;;2.20;;
21152;SDS011;10734;44.792;20.482;2022-07-10T03:23:45;6.97;;;1.92;;
21152;SDS011;10734;44.792;20.482;2022-07-10T03:26:12;3.97;;;1.83;;
21152;SDS011;10734;44.792;20.482;2022-07-10T03:28:39;4.38;;;2.50;;
21152;SDS011;10734;44.792;20.482;2022-07-10T03:31:06;5.25;;;1.90;;
21152;SDS011;10734;44.792;20.482;2022-07-10T03:33:33;6.95;;;1.92;;
21152;SDS011;10734;44.792;20.482;2022-07-10T03:36:00;3.40;;;1.92;;
21152;SDS011;10734;44.792;20.482;2022-07-10T03:38:27;3.20;;;1.80;;
21152;SDS011;10734;44.792;20.482;2022-07-10T03:40:54;6.45;;;1.88;;
21152;SDS011;10734;44.792;20.482;2022-07-10T03:43:20;5.40;;;2.17;;
21152;SDS011;10734;44.792;20.482;2022-07-10T03:45:53;3.55;;;1.92;;
21152;SDS011;10734;44.792;20.482;2022-07-10T03:48:19;5.53;;;1.83;;
21152;SDS011;10734;44.792;20.482;2022-07-10T03:50:49;5.88;;;1.83;;
21152;SDS011;10734;44.792;20.482;2022-07-10T03:53:17;5.95;;;2.30;;
21152;SDS011;10734;44.792;20.482;2022-07-10T03:55:45;5.90;;;1.90;;
21152;SDS011;10734;44.792;20.482;2022-07-10T03:58:11;4.57;;;1.80;;
21152;SDS011;10734;44.792;20.482;2022-07-10T04:00:38;7.65;;;2.08;;
21152;SDS011;10734;44.792;20.482;2022-07-10T04:03:07;8.43;;;2.17;;
21152;SDS011;10734;44.792;20.482;2022-07-10T04:05:34;3.70;;;1.88;;
21152;SDS011;10734;44.792;20.482;2022-07-10T04:08:02;6.45;;;2.00;;
21152;SDS011;10734;44.792;20.482;2022-07-10T04:10:30;5.78;;;2.10;;
21152;SDS011;10734;44.792;20.482;2022-07-10T04:12:57;7.15;;;1.80;;
21152;SDS011;10734;44.792;20.482;2022-07-10T04:15:24;2.63;;;1.75;;
21152;SDS011;10734;44.792;20.482;2022-07-10T04:17:51;3.20;;;1.95;;
21152;SDS011;10734;44.792;20.482;2022-07-10T04:20:19;7.65;;;2.38;;
21152;SDS011;10734;44.792;20.482;2022-07-10T04:22:46;5.90;;;2.38;;
21152;SDS011;10734;44.792;20.482;2022-07-10T04:25:13;6.65;;;1.75;;
21152;SDS011;10734;44.792;20.482;2022-07-10T04:27:40;3.13;;;1.75;;
21152;SDS011;10734;44.792;20.482;2022-07-10T04:30:07;6.05;;;2.00;;
21152;SDS011;10734;44.792;20.482;2022-07-10T04:32:34;6.70;;;2.10;;
21152;SDS011;10734;44.792;20.482;2022-07-10T04:35:00;5.40;;;1.55;;
21152;SDS011;10734;44.792;20.482;2022-07-10T04:37:27;3.53;;;1.95;;
21152;SDS011;10734;44.792;20.482;2022-07-10T04:39:57;5.90;;;2.13;;
21152;SDS011;10734;44.792;20.482;2022-07-10T04:42:24;3.13;;;1.83;;
21152;SDS011;10734;44.792;20.482;2022-07-10T04:44:52;5.03;;;2.30;;
21152;SDS011;10734;44.792;20.482;2022-07-10T04:47:19;6.45;;;1.67;;
21152;SDS011;10734;44.792;20.482;2022-07-10T04:49:46;5.15;;;1.83;;
21152;SDS011;10734;44.792;20.482;2022-07-10T04:52:12;7.00;;;2.17;;
21152;SDS011;10734;44.792;20.482;2022-07-10T04:54:39;6.45;;;1.98;;
21152;SDS011;10734;44.792;20.482;2022-07-10T04:57:05;5.40;;;1.83;;
21152;SDS011;10734;44.792;20.482;2022-07-10T04:59:32;3.97;;;2.10;;
21152;SDS011;10734;44.792;20.482;2022-07-10T05:01:59;5.15;;;2.50;;
21152;SDS011;10734;44.792;20.482;2022-07-10T05:04:25;4.18;;;2.10;;
21152;SDS011;10734;44.792;20.482;2022-07-10T05:06:52;4.97;;;2.63;;
21152;SDS011;10734;44.792;20.482;2022-07-10T05:09:19;5.32;;;1.92;;
21152;SDS011;10734;44.792;20.482;2022-07-10T05:11:46;2.95;;;1.70;;
21152;SDS011;10734;44.792;20.482;2022-07-10T05:14:13;4.30;;;2.00;;
21152;SDS011;10734;44.792;20.482;2022-07-10T05:16:40;5.13;;;2.10;;
21152;SDS011;10734;44.792;20.482;2022-07-10T05:19:06;4.72;;;1.90;;
21152;SDS011;10734;44.792;20.482;2022-07-10T05:21:33;5.78;;;1.75;;
21152;SDS011;10734;44.792;20.482;2022-07-10T05:24:00;5.93;;;2.60;;
21152;SDS011;10734;44.792;20.482;2022-07-10T05:26:27;4.25;;;2.42;;
21152;SDS011;10734;44.792;20.482;2022-07-10T05:28:54;7.35;;;1.73;;
21152;SDS011;10734;44.792;20.482;2022-07-10T05:31:20;4.65;;;2.08;;
21152;SDS011;10734;44.792;20.482;2022-07-10T05:33:47;3.10;;;1.95;;
21152;SDS011;10734;44.792;20.482;2022-07-10T05:36:14;4.88;;;2.17;;
21152;SDS011;10734;44.792;20.482;2022-07-10T05:38:41;5.00;;;2.03;;
21152;SDS011;10734;44.792;20.482;2022-07-10T05:41:08;5.22;;;1.90;;
21152;SDS011;10734;44.792;20.482;2022-07-10T05:43:34;7.55;;;2.38;;
21152;SDS011;10734;44.792;20.482;2022-07-10T05:46:01;6.55;;;1.83;;
21152;SDS011;10734;44.792;20.482;2022-07-10T05:48:28;7.95;;;1.90;;
21152;SDS011;10734;44.792;20.482;2022-07-10T05:50:55;5.50;;;1.90;;
21152;SDS011;10734;44.792;20.482;2022-07-10T05:53:41;3.42;;;2.10;;
21152;SDS011;10734;44.792;20.482;2022-07-10T05:56:08;6.05;;;1.80;;
21152;SDS011;10734;44.792;20.482;2022-07-10T05:58:35;3.42;;;1.90;;
21152;SDS011;10734;44.792;20.482;2022-07-10T06:01:02;5.65;;;1.83;;
21152;SDS011;10734;44.792;20.482;2022-07-10T06:03:29;2.90;;;1.77;;
21152;SDS011;10734;44.792;20.482;2022-07-10T06:05:55;5.72;;;2.30;;
21152;SDS011;10734;44.792;20.482;2022-07-10T06:08:22;11.68;;;2.30;;
21152;SDS011;10734;44.792;20.482;2022-07-10T06:10:49;4.82;;;1.83;;
21152;SDS011;10734;44.792;20.482;2022-07-10T06:13:15;4.55;;;1.85;;
21152;SDS011;10734;44.792;20.482;2022-07-10T06:15:42;3.67;;;2.20;;
21152;SDS011;10734;44.792;20.482;2022-07-10T06:18:09;6.95;;;2.28;;
21152;SDS011;10734;44.792;20.482;2022-07-10T06:20:36;4.35;;;2.38;;
21152;SDS011;10734;44.792;20.482;2022-07-10T06:23:02;6.18;;;1.98;;
21152;SDS011;10734;44.792;20.482;2022-07-10T06:25:29;6.18;;;2.40;;
21152;SDS011;10734;44.792;20.482;2022-07-10T06:27:56;7.13;;;2.45;;
21152;SDS011;10734;44.792;20.482;2022-07-10T06:30:22;4.10;;;2.00;;
21152;SDS011;10734;44.792;20.482;2022-07-10T06:32:49;3.95;;;1.92;;
21152;SDS011;10734;44.792;20.482;2022-07-10T06:35:16;9.13;;;2.58;;
21152;SDS011;10734;44.792;20.482;2022-07-10T06:37:43;5.35;;;2.38;;
21152;SDS011;10734;44.792;20.482;2022-07-10T06:40:11;4.05;;;1.95;;
21152;SDS011;10734;44.792;20.482;2022-07-10T06:42:41;6.80;;;2.25;;
21152;SDS011;10734;44.792;20.482;2022-07-10T06:45:10;4.40;;;2.00;;
21152;SDS011;10734;44.792;20.482;2022-07-10T06:47:37;4.63;;;2.05;;
21152;SDS011;10734;44.792;20.482;2022-07-10T06:50:26;4.32;;;2.10;;
21152;SDS011;10734;44.792;20.482;2022-07-10T06:53:00;3.97;;;2.08;;
21152;SDS011;10734;44.792;20.482;2022-07-10T06:55:27;4.95;;;1.77;;
21152;SDS011;10734;44.792;20.482;2022-07-10T06:57:54;4.05;;;2.00;;
21152;SDS011;10734;44.792;20.482;2022-07-10T07:00:22;3.58;;;1.45;;
21152;SDS011;10734;44.792;20.482;2022-07-10T07:02:49;6.40;;;2.33;;
21152;SDS011;10734;44.792;20.482;2022-07-10T07:05:16;2.20;;;1.70;;
21152;SDS011;10734;44.792;20.482;2022-07-10T07:07:43;5.28;;;1.98;;
21152;SDS011;10734;44.792;20.482;2022-07-10T07:10:10;4.70;;;1.73;;
21152;SDS011;10734;44.792;20.482;2022-07-10T07:12:37;2.90;;;1.80;;
21152;SDS011;10734;44.792;20.482;2022-07-10T07:15:05;5.15;;;1.75;;
21152;SDS011;10734;44.792;20.482;2022-07-10T07:17:32;3.10;;;1.85;;
21152;SDS011;10734;44.792;20.482;2022-07-10T07:20:00;2.92;;;1.80;;
21152;SDS011;10734;44.792;20.482;2022-07-10T07:22:46;4.28;;;1.83;;
21152;SDS011;10734;44.792;20.482;2022-07-10T07:25:31;2.78;;;1.63;;
21152;SDS011;10734;44.792;20.482;2022-07-10T07:27:58;5.80;;;1.80;;
21152;SDS011;10734;44.792;20.482;2022-07-10T07:30:25;3.25;;;1.65;;
21152;SDS011;10734;44.792;20.482;2022-07-10T07:32:51;2.70;;;1.67;;
21152;SDS011;10734;44.792;20.482;2022-07-10T07:35:18;2.42;;;1.52;;
21152;SDS011;10734;44.792;20.482;2022-07-10T07:37:46;9.82;;;2.08;;
21152;SDS011;10734;44.792;20.482;2022-07-10T07:40:20;5.70;;;2.25;;
21152;SDS011;10734;44.792;20.482;2022-07-10T07:42:50;4.03;;;1.60;;
21152;SDS011;10734;44.792;20.482;2022-07-10T07:45:17;7.72;;;1.73;;
21152;SDS011;10734;44.792;20.482;2022-07-10T07:50:14;4.55;;;1.88;;
21152;SDS011;10734;44.792;20.482;2022-07-10T07:52:42;3.95;;;1.67;;
21152;SDS011;10734;44.792;20.482;2022-07-10T07:55:10;6.95;;;2.10;;
21152;SDS011;10734;44.792;20.482;2022-07-10T07:57:37;3.17;;;1.70;;
21152;SDS011;10734;44.792;20.482;2022-07-10T08:00:05;3.58;;;1.92;;
21152;SDS011;10734;44.792;20.482;2022-07-10T08:02:34;2.47;;;1.70;;
21152;SDS011;10734;44.792;20.482;2022-07-10T08:05:02;4.82;;;1.90;;
21152;SDS011;10734;44.792;20.482;2022-07-10T08:07:34;2.03;;;1.52;;
21152;SDS011;10734;44.792;20.482;2022-07-10T08:10:03;3.08;;;1.85;;
21152;SDS011;10734;44.792;20.482;2022-07-10T08:12:31;4.78;;;1.88;;
21152;SDS011;10734;44.792;20.482;2022-07-10T08:14:58;2.25;;;1.65;;
21152;SDS011;10734;44.792;20.482;2022-07-10T08:17:25;3.03;;;1.70;;
21152;SDS011;10734;44.792;20.482;2022-07-10T08:19:52;3.90;;;2.30;;
21152;SDS011;10734;44.792;20.482;2022-07-10T08:22:20;2.40;;;1.55;;
21152;SDS011;10734;44.792;20.482;2022-07-10T08:24:46;3.75;;;1.90;;
21152;SDS011;10734;44.792;20.482;2022-07-10T08:27:13;5.68;;;1.73;;
21152;SDS011;10734;44.792;20.482;2022-07-10T08:29:41;3.25;;;1.42;;
21152;SDS011;10734;44.792;20.482;2022-07-10T08:32:08;1.65;;;1.55;;
21152;SDS011;10734;44.792;20.482;2022-07-10T08:34:36;4.35;;;1.65;;
21152;SDS011;10734;44.792;20.482;2022-07-10T08:37:03;3.50;;;1.38;;
21152;SDS011;10734;44.792;20.482;2022-07-10T08:39:30;4.35;;;1.30;;
21152;SDS011;10734;44.792;20.482;2022-07-10T08:41:58;3.13;;;1.42;;
21152;SDS011;10734;44.792;20.482;2022-07-10T08:44:25;4.25;;;1.80;;
21152;SDS011;10734;44.792;20.482;2022-07-10T08:46:52;2.45;;;1.48;;
21152;SDS011;10734;44.792;20.482;2022-07-10T08:49:19;3.58;;;1.60;;
21152;SDS011;10734;44.792;20.482;2022-07-10T08:51:54;2.92;;;1.65;;
21152;SDS011;10734;44.792;20.482;2022-07-10T08:54:26;6.05;;;1.58;;
21152;SDS011;10734;44.792;20.482;2022-07-10T08:56:56;4.13;;;1.30;;
21152;SDS011;10734;44.792;20.482;2022-07-10T08:59:24;3.30;;;1.25;;
21152;SDS011;10734;44.792;20.482;2022-07-10T09:01:57;5.15;;;1.73;;
21152;SDS011;10734;44.792;20.482;2022-07-10T09:04:25;1.83;;;0.98;;
21152;SDS011;10734;44.792;20.482;2022-07-10T09:06:53;1.67;;;1.17;;
21152;SDS011;10734;44.792;20.482;2022-07-10T09:09:21;2.20;;;1.23;;
21152;SDS011;10734;44.792;20.482;2022-07-10T09:11:54;3.17;;;1.45;;
21152;SDS011;10734;44.792;20.482;2022-07-10T09:14:25;2.88;;;1.40;;
21152;SDS011;10734;44.792;20.482;2022-07-10T09:17:00;3.80;;;1.38;;
21152;SDS011;10734;44.792;20.482;2022-07-10T09:19:28;4.85;;;1.40;;
21152;SDS011;10734;44.792;20.482;2022-07-10T09:22:05;1.45;;;1.00;;
21152;SDS011;10734;44.792;20.482;2022-07-10T09:24:38;1.92;;;1.17;;
21152;SDS011;10734;44.792;20.482;2022-07-10T09:27:06;3.85;;;1.30;;
21152;SDS011;10734;44.792;20.482;2022-07-10T09:29:47;2.22;;;1.08;;
21152;SDS011;10734;44.792;20.482;2022-07-10T09:32:16;4.18;;;1.30;;
21152;SDS011;10734;44.792;20.482;2022-07-10T09:34:47;3.72;;;1.23;;
21152;SDS011;10734;44.792;20.482;2022-07-10T09:37:18;3.28;;;1.42;;
21152;SDS011;10734;44.792;20.482;2022-07-10T09:40:00;4.63;;;1.05;;
21152;SDS011;10734;44.792;20.482;2022-07-10T09:42:37;4.82;;;1.17;;
21152;SDS011;10734;44.792;20.482;2022-07-10T09:47:58;3.90;;;1.00;;
21152;SDS011;10734;44.792;20.482;2022-07-10T09:50:30;1.70;;;1.10;;
21152;SDS011;10734;44.792;20.482;2022-07-10T09:53:00;3.47;;;1.13;;
21152;SDS011;10734;44.792;20.482;2022-07-10T09:55:27;2.38;;;1.08;;
21152;SDS011;10734;44.792;20.482;2022-07-10T10:00:24;3.53;;;1.25;;
21152;SDS011;10734;44.792;20.482;2022-07-10T10:02:57;3.28;;;1.67;;
21152;SDS011;10734;44.792;20.482;2022-07-10T10:05:36;2.35;;;1.15;;
21152;SDS011;10734;44.792;20.482;2022-07-10T10:08:19;3.55;;;1.20;;
21152;SDS011;10734;44.792;20.482;2022-07-10T10:10:50;4.68;;;1.50;;
21152;SDS011;10734;44.792;20.482;2022-07-10T10:13:19;4.78;;;1.15;;
21152;SDS011;10734;44.792;20.482;2022-07-10T10:15:48;4.13;;;1.02;;
21152;SDS011;10734;44.792;20.482;2022-07-10T10:18:25;7.10;;;1.60;;
21152;SDS011;10734;44.792;20.482;2022-07-10T10:20:53;3.67;;;1.60;;
21152;SDS011;10734;44.792;20.482;2022-07-10T10:23:24;2.78;;;1.45;;
21152;SDS011;10734;44.792;20.482;2022-07-10T10:25:52;3.97;;;1.50;;
21152;SDS011;10734;44.792;20.482;2022-07-10T10:28:21;4.38;;;1.65;;
21152;SDS011;10734;44.792;20.482;2022-07-10T10:30:52;3.72;;;1.70;;
21152;SDS011;10734;44.792;20.482;2022-07-10T10:36:03;9.95;;;1.50;;
21152;SDS011;10734;44.792;20.482;2022-07-10T10:41:28;4.78;;;1.67;;
21152;SDS011;10734;44.792;20.482;2022-07-10T10:49:24;4.30;;;1.40;;
21152;SDS011;10734;44.792;20.482;2022-07-10T10:52:01;3.22;;;1.08;;
21152;SDS011;10734;44.792;20.482;2022-07-10T11:00:02;3.75;;;1.33;;
21152;SDS011;10734;44.792;20.482;2022-07-10T11:07:56;6.18;;;1.13;;
21152;SDS011;10734;44.792;20.482;2022-07-10T11:15:31;5.10;;;1.20;;
21152;SDS011;10734;44.792;20.482;2022-07-10T11:18:06;6.30;;;1.20;;
21152;SDS011;10734;44.792;20.482;2022-07-10T11:20:35;1.55;;;0.93;;
21152;SDS011;10734;44.792;20.482;2022-07-10T11:25:52;5.00;;;1.15;;
21152;SDS011;10734;44.792;20.482;2022-07-10T11:31:23;1.55;;;1.00;;
21152;SDS011;10734;44.792;20.482;2022-07-10T11:33:52;1.58;;;1.00;;
21152;SDS011;10734;44.792;20.482;2022-07-10T11:36:21;3.83;;;1.08;;
21152;SDS011;10734;44.792;20.482;2022-07-10T11:38:56;1.50;;;0.90;;
21152;SDS011;10734;44.792;20.482;2022-07-10T11:41:33;4.13;;;1.33;;
21152;SDS011;10734;44.792;20.482;2022-07-10T11:44:01;3.47;;;0.82;;
21152;SDS011;10734;44.792;20.482;2022-07-10T11:46:30;1.80;;;1.00;;
21152;SDS011;10734;44.792;20.482;2022-07-10T11:48:59;4.78;;;1.00;;
21152;SDS011;10734;44.792;20.482;2022-07-10T11:51:30;3.57;;;0.90;;
21152;SDS011;10734;44.792;20.482;2022-07-10T11:56:36;6.30;;;1.38;;
21152;SDS011;10734;44.792;20.482;2022-07-10T11:59:06;2.22;;;1.13;;
21152;SDS011;10734;44.792;20.482;2022-07-10T12:01:46;2.42;;;1.40;;
21152;SDS011;10734;44.792;20.482;2022-07-10T12:04:19;9.52;;;1.77;;
21152;SDS011;10734;44.792;20.482;2022-07-10T12:06:53;4.70;;;1.10;;
21152;SDS011;10734;44.792;20.482;2022-07-10T12:09:22;1.90;;;0.98;;
21152;SDS011;10734;44.792;20.482;2022-07-10T12:12:02;1.33;;;0.90;;
21152;SDS011;10734;44.792;20.482;2022-07-10T12:14:31;0.77;;;0.77;;
21152;SDS011;10734;44.792;20.482;2022-07-10T12:16:59;1.73;;;0.80;;
21152;SDS011;10734;44.792;20.482;2022-07-10T12:19:27;1.77;;;0.85;;
21152;SDS011;10734;44.792;20.482;2022-07-10T12:22:04;4.45;;;0.80;;
21152;SDS011;10734;44.792;20.482;2022-07-10T12:24:32;2.55;;;0.93;;
21152;SDS011;10734;44.792;20.482;2022-07-10T12:26:59;1.50;;;0.98;;
21152;SDS011;10734;44.792;20.482;2022-07-10T12:29:26;1.90;;;0.98;;
21152;SDS011;10734;44.792;20.482;2022-07-10T12:31:55;3.58;;;0.82;;
21152;SDS011;10734;44.792;20.482;2022-07-10T12:37:07;4.80;;;1.10;;
21152;SDS011;10734;44.792;20.482;2022-07-10T12:39:49;7.10;;;1.27;;
21152;SDS011;10734;44.792;20.482;2022-07-10T12:42:26;5.43;;;1.30;;
21152;SDS011;10734;44.792;20.482;2022-07-10T12:44:53;1.05;;;0.85;;
21152;SDS011;10734;44.792;20.482;2022-07-10T12:47:20;4.80;;;1.63;;
21152;SDS011;10734;44.792;20.482;2022-07-10T12:49:51;3.08;;;1.67;;
21152;SDS011;10734;44.792;20.482;2022-07-10T12:52:35;8.18;;;1.10;;
21152;SDS011;10734;44.792;20.482;2022-07-10T13:03:00;2.45;;;1.35;;
21152;SDS011;10734;44.792;20.482;2022-07-10T13:05:29;1.42;;;1.10;;
21152;SDS011;10734;44.792;20.482;2022-07-10T13:10:47;2.28;;;1.05;;
21152;SDS011;10734;44.792;20.482;2022-07-10T13:13:17;2.83;;;1.00;;
21152;SDS011;10734;44.792;20.482;2022-07-10T13:15:45;2.67;;;1.38;;
21152;SDS011;10734;44.792;20.482;2022-07-10T13:18:24;1.98;;;1.23;;
21152;SDS011;10734;44.792;20.482;2022-07-10T13:20:53;1.67;;;0.90;;
21152;SDS011;10734;44.792;20.482;2022-07-10T13:23:26;3.67;;;1.10;;
21152;SDS011;10734;44.792;20.482;2022-07-10T13:25:54;1.52;;;0.90;;
21152;SDS011;10734;44.792;20.482;2022-07-10T13:28:21;4.80;;;1.00;;
21152;SDS011;10734;44.792;20.482;2022-07-10T13:30:49;1.55;;;0.80;;
21152;SDS011;10734;44.792;20.482;2022-07-10T13:33:15;2.33;;;0.90;;
21152;SDS011;10734;44.792;20.482;2022-07-10T13:35:42;2.13;;;1.08;;
21152;SDS011;10734;44.792;20.482;2022-07-10T13:38:09;2.15;;;1.10;;
21152;SDS011;10734;44.792;20.482;2022-07-10T13:40:42;3.75;;;1.25;;
21152;SDS011;10734;44.792;20.482;2022-07-10T13:43:10;6.88;;;1.52;;
21152;SDS011;10734;44.792;20.482;2022-07-10T13:45:39;8.50;;;1.33;;
21152;SDS011;10734;44.792;20.482;2022-07-10T13:48:13;2.85;;;1.27;;
21152;SDS011;10734;44.792;20.482;2022-07-10T13:50:42;2.50;;;1.08;;
21152;SDS011;10734;44.792;20.482;2022-07-10T13:53:09;1.88;;;0.90;;
21152;SDS011;10734;44.792;20.482;2022-07-10T13:55:36;5.72;;;2.05;;
21152;SDS011;10734;44.792;20.482;2022-07-10T13:58:04;1.42;;;0.93;;
21152;SDS011;10734;44.792;20.482;2022-07-10T14:00:31;0.88;;;0.88;;
21152;SDS011;10734;44.792;20.482;2022-07-10T14:02:58;4.25;;;1.13;;
21152;SDS011;10734;44.792;20.482;2022-07-10T14:05:26;2.67;;;0.90;;
21152;SDS011;10734;44.792;20.482;2022-07-10T14:07:53;1.77;;;1.20;;
21152;SDS011;10734;44.792;20.482;2022-07-10T14:10:20;2.65;;;0.80;;
21152;SDS011;10734;44.792;20.482;2022-07-10T14:12:47;2.53;;;0.95;;
21152;SDS011;10734;44.792;20.482;2022-07-10T14:15:14;4.60;;;1.30;;
21152;SDS011;10734;44.792;20.482;2022-07-10T14:17:41;1.70;;;1.02;;
21152;SDS011;10734;44.792;20.482;2022-07-10T14:20:09;1.70;;;1.00;;
21152;SDS011;10734;44.792;20.482;2022-07-10T14:22:36;4.00;;;1.00;;
21152;SDS011;10734;44.792;20.482;2022-07-10T14:25:03;4.05;;;1.40;;
21152;SDS011;10734;44.792;20.482;2022-07-10T14:27:31;3.83;;;1.00;;
21152;SDS011;10734;44.792;20.482;2022-07-10T14:29:58;2.00;;;1.05;;
21152;SDS011;10734;44.792;20.482;2022-07-10T14:32:25;3.95;;;1.15;;
21152;SDS011;10734;44.792;20.482;2022-07-10T14:34:52;2.30;;;1.15;;
21152;SDS011;10734;44.792;20.482;2022-07-10T14:37:18;3.33;;;1.35;;
21152;SDS011;10734;44.792;20.482;2022-07-10T14:39:45;3.33;;;1.40;;
21152;SDS011;10734;44.792;20.482;2022-07-10T14:42:12;5.32;;;1.13;;
21152;SDS011;10734;44.792;20.482;2022-07-10T14:44:39;2.03;;;1.30;;
21152;SDS011;10734;44.792;20.482;2022-07-10T14:47:05;4.03;;;1.00;;
21152;SDS011;10734;44.792;20.482;2022-07-10T14:49:32;6.93;;;1.30;;
21152;SDS011;10734;44.792;20.482;2022-07-10T14:51:59;6.15;;;1.08;;
21152;SDS011;10734;44.792;20.482;2022-07-10T14:54:26;3.05;;;1.08;;
21152;SDS011;10734;44.792;20.482;2022-07-10T14:56:53;3.67;;;0.77;;
21152;SDS011;10734;44.792;20.482;2022-07-10T14:59:25;1.48;;;1.23;;
21152;SDS011;10734;44.792;20.482;2022-07-10T15:01:51;1.73;;;1.40;;
21152;SDS011;10734;44.792;20.482;2022-07-10T15:04:18;1.55;;;0.90;;
21152;SDS011;10734;44.792;20.482;2022-07-10T15:06:45;2.45;;;1.25;;
21152;SDS011;10734;44.792;20.482;2022-07-10T15:09:13;4.07;;;1.10;;
21152;SDS011;10734;44.792;20.482;2022-07-10T15:11:40;3.60;;;0.98;;
21152;SDS011;10734;44.792;20.482;2022-07-10T15:14:06;1.52;;;0.95;;
21152;SDS011;10734;44.792;20.482;2022-07-10T15:16:33;4.70;;;0.93;;
21152;SDS011;10734;44.792;20.482;2022-07-10T15:19:00;1.52;;;1.30;;
21152;SDS011;10734;44.792;20.482;2022-07-10T15:21:27;4.20;;;1.00;;
21152;SDS011;10734;44.792;20.482;2022-07-10T15:23:54;4.18;;;1.20;;
21152;SDS011;10734;44.792;20.482;2022-07-10T15:26:22;1.70;;;1.25;;
21152;SDS011;10734;44.792;20.482;2022-07-10T15:28:48;5.72;;;0.95;;
21152;SDS011;10734;44.792;20.482;2022-07-10T15:31:17;5.97;;;1.45;;
21152;SDS011;10734;44.792;20.482;2022-07-10T15:33:44;1.35;;;1.00;;
21152;SDS011;10734;44.792;20.482;2022-07-10T15:36:12;2.65;;;0.85;;